<?xml version="1.0" encoding="UTF-8" standalone="no" ?><gpx xmlns="http://www.topografix.com/GPX/1/1" xmlns:gpxx="http://www.garmin.com/xmlschemas/GpxExtensions/v3" xmlns:wptx1="http://www.garmin.com/xmlschemas/WaypointExtension/v1" xmlns:gpxtpx="http://www.garmin.com/xmlschemas/TrackPointExtension/v1" creator="GuideVTT.com" version="1.1" xmlns:xsi="http://www.w3.org/2001/XMLSchema-instance" xsi:schemaLocation="http://www.topografix.com/GPX/1/1 http://www.topografix.com/GPX/1/1/gpx.xsd http://www.garmin.com/xmlschemas/GpxExtensions/v3 http://www8.garmin.com/xmlschemas/GpxExtensionsv3.xsd http://www.garmin.com/xmlschemas/WaypointExtension/v1 http://www8.garmin.com/xmlschemas/WaypointExtensionv1.xsd http://www.garmin.com/xmlschemas/TrackPointExtension/v1 http://www.garmin.com/xmlschemas/TrackPointExtensionv1.xsd">
<metadata><link href="http://www.garmin.com"><text>Garmin International</text></link><time>2013-06-22T15:13:50Z</time></metadata>
<trk><name>27avril08.gpx</name><extensions><gpxx:TrackExtension><gpxx:DisplayColor>Cyan</gpxx:DisplayColor></gpxx:TrackExtension></extensions><trkseg>
<trkpt lat="43.04368300" lon="0.25608300"><ele></ele><time>2014-6-2T10:24:4Z</time></trkpt>
<trkpt lat="43.04311700" lon="0.25598300"><ele></ele><time>2014-6-2T10:24:7Z</time></trkpt>
<trkpt lat="43.04245000" lon="0.25583300"><ele></ele><time>2014-6-2T10:24:10Z</time></trkpt>
<trkpt lat="43.04130000" lon="0.25598300"><ele></ele><time>2014-6-2T10:24:13Z</time></trkpt>
<trkpt lat="43.04095000" lon="0.25628300"><ele></ele><time>2014-6-2T10:24:16Z</time></trkpt>
<trkpt lat="43.04181700" lon="0.25616700"><ele></ele><time>2014-6-2T10:24:19Z</time></trkpt>
<trkpt lat="43.04085000" lon="0.25635000"><ele></ele><time>2014-6-2T10:24:22Z</time></trkpt>
<trkpt lat="43.04058300" lon="0.25658300"><ele></ele><time>2014-6-2T10:24:25Z</time></trkpt>
<trkpt lat="43.03986700" lon="0.25730000"><ele></ele><time>2014-6-2T10:24:28Z</time></trkpt>
<trkpt lat="43.03986700" lon="0.25761700"><ele></ele><time>2014-6-2T10:24:31Z</time></trkpt>
<trkpt lat="43.04003300" lon="0.25771700"><ele></ele><time>2014-6-2T10:24:34Z</time></trkpt>
<trkpt lat="43.04041700" lon="0.25725000"><ele></ele><time>2014-6-2T10:24:37Z</time></trkpt>
<trkpt lat="43.04061700" lon="0.25715000"><ele></ele><time>2014-6-2T10:24:40Z</time></trkpt>
<trkpt lat="43.04090000" lon="0.25693300"><ele></ele><time>2014-6-2T10:24:43Z</time></trkpt>
<trkpt lat="43.04150000" lon="0.25681700"><ele></ele><time>2014-6-2T10:24:46Z</time></trkpt>
<trkpt lat="43.04185000" lon="0.25683300"><ele></ele><time>2014-6-2T10:24:49Z</time></trkpt>
<trkpt lat="43.04231700" lon="0.25695000"><ele></ele><time>2014-6-2T10:24:52Z</time></trkpt>
<trkpt lat="43.04270000" lon="0.25738300"><ele></ele><time>2014-6-2T10:24:55Z</time></trkpt>
<trkpt lat="43.04280000" lon="0.25818300"><ele></ele><time>2014-6-2T10:24:58Z</time></trkpt>
<trkpt lat="43.04275000" lon="0.25853300"><ele></ele><time>2014-6-2T10:25:1Z</time></trkpt>
<trkpt lat="43.04246700" lon="0.25938300"><ele></ele><time>2014-6-2T10:25:4Z</time></trkpt>
<trkpt lat="43.04231700" lon="0.25983300"><ele></ele><time>2014-6-2T10:25:7Z</time></trkpt>
<trkpt lat="43.04225000" lon="0.26033300"><ele></ele><time>2014-6-2T10:25:10Z</time></trkpt>
<trkpt lat="43.04216700" lon="0.26080000"><ele></ele><time>2014-6-2T10:25:13Z</time></trkpt>
<trkpt lat="43.04211700" lon="0.26095000"><ele></ele><time>2014-6-2T10:25:16Z</time></trkpt>
<trkpt lat="43.04191700" lon="0.26033300"><ele></ele><time>2014-6-2T10:25:19Z</time></trkpt>
<trkpt lat="43.04190000" lon="0.25970000"><ele></ele><time>2014-6-2T10:25:22Z</time></trkpt>
<trkpt lat="43.04181700" lon="0.25925000"><ele></ele><time>2014-6-2T10:25:25Z</time></trkpt>
<trkpt lat="43.04166700" lon="0.25908300"><ele></ele><time>2014-6-2T10:25:28Z</time></trkpt>
<trkpt lat="43.04153300" lon="0.25921700"><ele></ele><time>2014-6-2T10:25:31Z</time></trkpt>
<trkpt lat="43.04166700" lon="0.25930000"><ele></ele><time>2014-6-2T10:25:34Z</time></trkpt>
<trkpt lat="43.04155000" lon="0.26006700"><ele></ele><time>2014-6-2T10:25:37Z</time></trkpt>
<trkpt lat="43.04155000" lon="0.26038300"><ele></ele><time>2014-6-2T10:25:40Z</time></trkpt>
<trkpt lat="43.04150000" lon="0.26150000"><ele></ele><time>2014-6-2T10:25:43Z</time></trkpt>
<trkpt lat="43.04151700" lon="0.26213300"><ele></ele><time>2014-6-2T10:25:46Z</time></trkpt>
<trkpt lat="43.04168300" lon="0.26358300"><ele></ele><time>2014-6-2T10:25:49Z</time></trkpt>
<trkpt lat="43.04175000" lon="0.26383300"><ele></ele><time>2014-6-2T10:25:52Z</time></trkpt>
<trkpt lat="43.04185000" lon="0.26410000"><ele></ele><time>2014-6-2T10:25:55Z</time></trkpt>
<trkpt lat="43.04218300" lon="0.26440000"><ele></ele><time>2014-6-2T10:25:58Z</time></trkpt>
<trkpt lat="43.04275000" lon="0.26488300"><ele></ele><time>2014-6-2T10:26:1Z</time></trkpt>
<trkpt lat="43.04308300" lon="0.26498300"><ele></ele><time>2014-6-2T10:26:4Z</time></trkpt>
<trkpt lat="43.04333300" lon="0.26498300"><ele></ele><time>2014-6-2T10:26:7Z</time></trkpt>
<trkpt lat="43.04358300" lon="0.26446700"><ele></ele><time>2014-6-2T10:26:10Z</time></trkpt>
<trkpt lat="43.04385000" lon="0.26418300"><ele></ele><time>2014-6-2T10:26:13Z</time></trkpt>
<trkpt lat="43.04415000" lon="0.26408300"><ele></ele><time>2014-6-2T10:26:16Z</time></trkpt>
<trkpt lat="43.04450000" lon="0.26400000"><ele></ele><time>2014-6-2T10:26:19Z</time></trkpt>
<trkpt lat="43.04483300" lon="0.26435000"><ele></ele><time>2014-6-2T10:26:22Z</time></trkpt>
<trkpt lat="43.04525000" lon="0.26493300"><ele></ele><time>2014-6-2T10:26:25Z</time></trkpt>
<trkpt lat="43.04551700" lon="0.26518300"><ele></ele><time>2014-6-2T10:26:28Z</time></trkpt>
<trkpt lat="43.04606700" lon="0.26563300"><ele></ele><time>2014-6-2T10:26:31Z</time></trkpt>
<trkpt lat="43.04621700" lon="0.26568300"><ele></ele><time>2014-6-2T10:26:34Z</time></trkpt>
<trkpt lat="43.04610000" lon="0.26583300"><ele></ele><time>2014-6-2T10:26:37Z</time></trkpt>
<trkpt lat="43.04593300" lon="0.26585000"><ele></ele><time>2014-6-2T10:26:40Z</time></trkpt>
<trkpt lat="43.04608300" lon="0.26611700"><ele></ele><time>2014-6-2T10:26:43Z</time></trkpt>
<trkpt lat="43.04615000" lon="0.26653300"><ele></ele><time>2014-6-2T10:26:46Z</time></trkpt>
<trkpt lat="43.04611700" lon="0.26675000"><ele></ele><time>2014-6-2T10:26:49Z</time></trkpt>
<trkpt lat="43.04613300" lon="0.26693300"><ele></ele><time>2014-6-2T10:26:52Z</time></trkpt>
<trkpt lat="43.04611700" lon="0.26710000"><ele></ele><time>2014-6-2T10:26:55Z</time></trkpt>
<trkpt lat="43.04611700" lon="0.26758300"><ele></ele><time>2014-6-2T10:26:58Z</time></trkpt>
<trkpt lat="43.04595000" lon="0.26850000"><ele></ele><time>2014-6-2T10:27:1Z</time></trkpt>
<trkpt lat="43.04590000" lon="0.26885000"><ele></ele><time>2014-6-2T10:27:4Z</time></trkpt>
<trkpt lat="43.04586700" lon="0.26905000"><ele></ele><time>2014-6-2T10:27:7Z</time></trkpt>
<trkpt lat="43.04585000" lon="0.26938300"><ele></ele><time>2014-6-2T10:27:10Z</time></trkpt>
<trkpt lat="43.04581700" lon="0.26958300"><ele></ele><time>2014-6-2T10:27:13Z</time></trkpt>
<trkpt lat="43.04578300" lon="0.26995000"><ele></ele><time>2014-6-2T10:27:16Z</time></trkpt>
<trkpt lat="43.04570000" lon="0.27033300"><ele></ele><time>2014-6-2T10:27:19Z</time></trkpt>
<trkpt lat="43.04555000" lon="0.27053300"><ele></ele><time>2014-6-2T10:27:22Z</time></trkpt>
<trkpt lat="43.04553300" lon="0.27083300"><ele></ele><time>2014-6-2T10:27:25Z</time></trkpt>
<trkpt lat="43.04540000" lon="0.27140000"><ele></ele><time>2014-6-2T10:27:28Z</time></trkpt>
<trkpt lat="43.04538300" lon="0.27220000"><ele></ele><time>2014-6-2T10:27:31Z</time></trkpt>
<trkpt lat="43.04551700" lon="0.27250000"><ele></ele><time>2014-6-2T10:27:34Z</time></trkpt>
<trkpt lat="43.04571700" lon="0.27261700"><ele></ele><time>2014-6-2T10:27:37Z</time></trkpt>
<trkpt lat="43.04566700" lon="0.27311700"><ele></ele><time>2014-6-2T10:27:40Z</time></trkpt>
<trkpt lat="43.04560000" lon="0.27326700"><ele></ele><time>2014-6-2T10:27:43Z</time></trkpt>
<trkpt lat="43.04570000" lon="0.27450000"><ele></ele><time>2014-6-2T10:27:46Z</time></trkpt>
<trkpt lat="43.04531700" lon="0.27666700"><ele></ele><time>2014-6-2T10:27:49Z</time></trkpt>
<trkpt lat="43.04530000" lon="0.27733300"><ele></ele><time>2014-6-2T10:27:52Z</time></trkpt>
<trkpt lat="43.04541700" lon="0.27771700"><ele></ele><time>2014-6-2T10:27:55Z</time></trkpt>
<trkpt lat="43.04546700" lon="0.27791700"><ele></ele><time>2014-6-2T10:27:58Z</time></trkpt>
<trkpt lat="43.04508300" lon="0.27756700"><ele></ele><time>2014-6-2T10:28:1Z</time></trkpt>
<trkpt lat="43.04476700" lon="0.27696700"><ele></ele><time>2014-6-2T10:28:4Z</time></trkpt>
<trkpt lat="43.04471700" lon="0.27663300"><ele></ele><time>2014-6-2T10:28:7Z</time></trkpt>
<trkpt lat="43.04436700" lon="0.27850000"><ele></ele><time>2014-6-2T10:28:10Z</time></trkpt>
<trkpt lat="43.04448300" lon="0.27900000"><ele></ele><time>2014-6-2T10:28:13Z</time></trkpt>
<trkpt lat="43.04508300" lon="0.27925000"><ele></ele><time>2014-6-2T10:28:16Z</time></trkpt>
<trkpt lat="43.04630000" lon="0.27983300"><ele></ele><time>2014-6-2T10:28:19Z</time></trkpt>
<trkpt lat="43.04718300" lon="0.28026700"><ele></ele><time>2014-6-2T10:28:22Z</time></trkpt>
<trkpt lat="43.04756700" lon="0.28026700"><ele></ele><time>2014-6-2T10:28:25Z</time></trkpt>
<trkpt lat="43.04880000" lon="0.27881700"><ele></ele><time>2014-6-2T10:28:28Z</time></trkpt>
<trkpt lat="43.04921700" lon="0.27798300"><ele></ele><time>2014-6-2T10:28:31Z</time></trkpt>
<trkpt lat="43.04928300" lon="0.27773300"><ele></ele><time>2014-6-2T10:28:34Z</time></trkpt>
<trkpt lat="43.04926700" lon="0.27823300"><ele></ele><time>2014-6-2T10:28:37Z</time></trkpt>
<trkpt lat="43.04915000" lon="0.27878300"><ele></ele><time>2014-6-2T10:28:40Z</time></trkpt>
<trkpt lat="43.04908300" lon="0.27936700"><ele></ele><time>2014-6-2T10:28:43Z</time></trkpt>
<trkpt lat="43.04893300" lon="0.28001700"><ele></ele><time>2014-6-2T10:28:46Z</time></trkpt>
<trkpt lat="43.04886700" lon="0.28088300"><ele></ele><time>2014-6-2T10:28:49Z</time></trkpt>
<trkpt lat="43.04905000" lon="0.28140000"><ele></ele><time>2014-6-2T10:28:52Z</time></trkpt>
<trkpt lat="43.04920000" lon="0.28213300"><ele></ele><time>2014-6-2T10:28:55Z</time></trkpt>
<trkpt lat="43.04918300" lon="0.28230000"><ele></ele><time>2014-6-2T10:28:58Z</time></trkpt>
<trkpt lat="43.04915000" lon="0.28248300"><ele></ele><time>2014-6-2T10:29:1Z</time></trkpt>
<trkpt lat="43.04893300" lon="0.28261700"><ele></ele><time>2014-6-2T10:29:4Z</time></trkpt>
<trkpt lat="43.04833300" lon="0.28245000"><ele></ele><time>2014-6-2T10:29:7Z</time></trkpt>
<trkpt lat="43.04780000" lon="0.28273300"><ele></ele><time>2014-6-2T10:29:10Z</time></trkpt>
<trkpt lat="43.04686700" lon="0.28268300"><ele></ele><time>2014-6-2T10:29:13Z</time></trkpt>
<trkpt lat="43.04606700" lon="0.28303300"><ele></ele><time>2014-6-2T10:29:16Z</time></trkpt>
<trkpt lat="43.04581700" lon="0.28320000"><ele></ele><time>2014-6-2T10:29:19Z</time></trkpt>
<trkpt lat="43.04555000" lon="0.28316700"><ele></ele><time>2014-6-2T10:29:22Z</time></trkpt>
<trkpt lat="43.04516700" lon="0.28288300"><ele></ele><time>2014-6-2T10:29:25Z</time></trkpt>
<trkpt lat="43.04475000" lon="0.28293300"><ele></ele><time>2014-6-2T10:29:28Z</time></trkpt>
<trkpt lat="43.04441700" lon="0.28295000"><ele></ele><time>2014-6-2T10:29:31Z</time></trkpt>
<trkpt lat="43.04410000" lon="0.28308300"><ele></ele><time>2014-6-2T10:29:34Z</time></trkpt>
<trkpt lat="43.04385000" lon="0.28286700"><ele></ele><time>2014-6-2T10:29:37Z</time></trkpt>
<trkpt lat="43.04361700" lon="0.28276700"><ele></ele><time>2014-6-2T10:29:40Z</time></trkpt>
<trkpt lat="43.04338300" lon="0.28266700"><ele></ele><time>2014-6-2T10:29:43Z</time></trkpt>
<trkpt lat="43.04303300" lon="0.28258300"><ele></ele><time>2014-6-2T10:29:46Z</time></trkpt>
<trkpt lat="43.04275000" lon="0.28248300"><ele></ele><time>2014-6-2T10:29:49Z</time></trkpt>
<trkpt lat="43.04245000" lon="0.28213300"><ele></ele><time>2014-6-2T10:29:52Z</time></trkpt>
<trkpt lat="43.04216700" lon="0.28208300"><ele></ele><time>2014-6-2T10:29:55Z</time></trkpt>
<trkpt lat="43.04186700" lon="0.28218300"><ele></ele><time>2014-6-2T10:29:58Z</time></trkpt>
<trkpt lat="43.04160000" lon="0.28213300"><ele></ele><time>2014-6-2T10:30:1Z</time></trkpt>
<trkpt lat="43.04108300" lon="0.28196700"><ele></ele><time>2014-6-2T10:30:4Z</time></trkpt>
<trkpt lat="43.04071700" lon="0.28176700"><ele></ele><time>2014-6-2T10:30:7Z</time></trkpt>
<trkpt lat="43.04061700" lon="0.28080000"><ele></ele><time>2014-6-2T10:30:10Z</time></trkpt>
<trkpt lat="43.04045000" lon="0.28018300"><ele></ele><time>2014-6-2T10:30:13Z</time></trkpt>
<trkpt lat="43.04045000" lon="0.27966700"><ele></ele><time>2014-6-2T10:30:16Z</time></trkpt>
<trkpt lat="43.04040000" lon="0.27938300"><ele></ele><time>2014-6-2T10:30:19Z</time></trkpt>
<trkpt lat="43.04005000" lon="0.27903300"><ele></ele><time>2014-6-2T10:30:22Z</time></trkpt>
<trkpt lat="43.03985000" lon="0.27896700"><ele></ele><time>2014-6-2T10:30:25Z</time></trkpt>
<trkpt lat="43.03943300" lon="0.27943300"><ele></ele><time>2014-6-2T10:30:28Z</time></trkpt>
<trkpt lat="43.03976700" lon="0.27903300"><ele></ele><time>2014-6-2T10:30:31Z</time></trkpt>
<trkpt lat="43.03960000" lon="0.27910000"><ele></ele><time>2014-6-2T10:30:34Z</time></trkpt>
<trkpt lat="43.03928300" lon="0.27963300"><ele></ele><time>2014-6-2T10:30:37Z</time></trkpt>
<trkpt lat="43.03918300" lon="0.28015000"><ele></ele><time>2014-6-2T10:30:40Z</time></trkpt>
<trkpt lat="43.03911700" lon="0.28121700"><ele></ele><time>2014-6-2T10:30:43Z</time></trkpt>
<trkpt lat="43.03896700" lon="0.28161700"><ele></ele><time>2014-6-2T10:30:46Z</time></trkpt>
<trkpt lat="43.03871700" lon="0.28151700"><ele></ele><time>2014-6-2T10:30:49Z</time></trkpt>
<trkpt lat="43.03845000" lon="0.28106700"><ele></ele><time>2014-6-2T10:30:52Z</time></trkpt>
<trkpt lat="43.03825000" lon="0.28086700"><ele></ele><time>2014-6-2T10:30:55Z</time></trkpt>
<trkpt lat="43.03758300" lon="0.28023300"><ele></ele><time>2014-6-2T10:30:58Z</time></trkpt>
<trkpt lat="43.03736700" lon="0.28003300"><ele></ele><time>2014-6-2T10:31:1Z</time></trkpt>
<trkpt lat="43.03683300" lon="0.27983300"><ele></ele><time>2014-6-2T10:31:4Z</time></trkpt>
<trkpt lat="43.03650000" lon="0.27981700"><ele></ele><time>2014-6-2T10:31:7Z</time></trkpt>
<trkpt lat="43.03625000" lon="0.27980000"><ele></ele><time>2014-6-2T10:31:10Z</time></trkpt>
<trkpt lat="43.03615000" lon="0.27950000"><ele></ele><time>2014-6-2T10:31:13Z</time></trkpt>
<trkpt lat="43.03598300" lon="0.27893300"><ele></ele><time>2014-6-2T10:31:16Z</time></trkpt>
<trkpt lat="43.03586700" lon="0.27828300"><ele></ele><time>2014-6-2T10:31:19Z</time></trkpt>
<trkpt lat="43.03580000" lon="0.27803300"><ele></ele><time>2014-6-2T10:31:22Z</time></trkpt>
<trkpt lat="43.03571700" lon="0.27756700"><ele></ele><time>2014-6-2T10:31:25Z</time></trkpt>
<trkpt lat="43.03553300" lon="0.27696700"><ele></ele><time>2014-6-2T10:31:28Z</time></trkpt>
<trkpt lat="43.03458300" lon="0.27588300"><ele></ele><time>2014-6-2T10:31:31Z</time></trkpt>
<trkpt lat="43.03433300" lon="0.27563300"><ele></ele><time>2014-6-2T10:31:34Z</time></trkpt>
<trkpt lat="43.03428300" lon="0.27515000"><ele></ele><time>2014-6-2T10:31:37Z</time></trkpt>
<trkpt lat="43.03473300" lon="0.27421700"><ele></ele><time>2014-6-2T10:31:40Z</time></trkpt>
<trkpt lat="43.03490000" lon="0.27370000"><ele></ele><time>2014-6-2T10:31:43Z</time></trkpt>
<trkpt lat="43.03478300" lon="0.27353300"><ele></ele><time>2014-6-2T10:31:46Z</time></trkpt>
<trkpt lat="43.03458300" lon="0.27353300"><ele></ele><time>2014-6-2T10:31:49Z</time></trkpt>
<trkpt lat="43.03361700" lon="0.27356700"><ele></ele><time>2014-6-2T10:31:52Z</time></trkpt>
<trkpt lat="43.03340000" lon="0.27348300"><ele></ele><time>2014-6-2T10:31:55Z</time></trkpt>
<trkpt lat="43.03293300" lon="0.27265000"><ele></ele><time>2014-6-2T10:31:58Z</time></trkpt>
<trkpt lat="43.03280000" lon="0.27201700"><ele></ele><time>2014-6-2T10:32:1Z</time></trkpt>
<trkpt lat="43.03285000" lon="0.27150000"><ele></ele><time>2014-6-2T10:32:4Z</time></trkpt>
<trkpt lat="43.03248300" lon="0.27190000"><ele></ele><time>2014-6-2T10:32:7Z</time></trkpt>
<trkpt lat="43.03230000" lon="0.27241700"><ele></ele><time>2014-6-2T10:32:10Z</time></trkpt>
<trkpt lat="43.03261700" lon="0.27326700"><ele></ele><time>2014-6-2T10:32:13Z</time></trkpt>
<trkpt lat="43.03258300" lon="0.27348300"><ele></ele><time>2014-6-2T10:32:16Z</time></trkpt>
<trkpt lat="43.03263300" lon="0.27403300"><ele></ele><time>2014-6-2T10:32:19Z</time></trkpt>
<trkpt lat="43.03265000" lon="0.27461700"><ele></ele><time>2014-6-2T10:32:22Z</time></trkpt>
<trkpt lat="43.03273300" lon="0.27481700"><ele></ele><time>2014-6-2T10:32:25Z</time></trkpt>
<trkpt lat="43.03281700" lon="0.27493300"><ele></ele><time>2014-6-2T10:32:28Z</time></trkpt>
<trkpt lat="43.03280000" lon="0.27536700"><ele></ele><time>2014-6-2T10:32:31Z</time></trkpt>
<trkpt lat="43.03281700" lon="0.27561700"><ele></ele><time>2014-6-2T10:32:34Z</time></trkpt>
<trkpt lat="43.03291700" lon="0.27578300"><ele></ele><time>2014-6-2T10:32:37Z</time></trkpt>
<trkpt lat="43.03313300" lon="0.27586700"><ele></ele><time>2014-6-2T10:32:40Z</time></trkpt>
<trkpt lat="43.03368300" lon="0.27658300"><ele></ele><time>2014-6-2T10:32:43Z</time></trkpt>
<trkpt lat="43.03376700" lon="0.27690000"><ele></ele><time>2014-6-2T10:32:46Z</time></trkpt>
<trkpt lat="43.03390000" lon="0.27740000"><ele></ele><time>2014-6-2T10:32:49Z</time></trkpt>
<trkpt lat="43.03385000" lon="0.27798300"><ele></ele><time>2014-6-2T10:32:52Z</time></trkpt>
<trkpt lat="43.03376700" lon="0.27830000"><ele></ele><time>2014-6-2T10:32:55Z</time></trkpt>
<trkpt lat="43.03371700" lon="0.27878300"><ele></ele><time>2014-6-2T10:32:58Z</time></trkpt>
<trkpt lat="43.03370000" lon="0.27930000"><ele></ele><time>2014-6-2T10:33:1Z</time></trkpt>
<trkpt lat="43.03376700" lon="0.28011700"><ele></ele><time>2014-6-2T10:33:4Z</time></trkpt>
<trkpt lat="43.03391700" lon="0.28085000"><ele></ele><time>2014-6-2T10:33:7Z</time></trkpt>
<trkpt lat="43.03373300" lon="0.28118300"><ele></ele><time>2014-6-2T10:33:10Z</time></trkpt>
<trkpt lat="43.03361700" lon="0.28166700"><ele></ele><time>2014-6-2T10:33:13Z</time></trkpt>
<trkpt lat="43.03375000" lon="0.28211700"><ele></ele><time>2014-6-2T10:33:16Z</time></trkpt>
<trkpt lat="43.03391700" lon="0.28268300"><ele></ele><time>2014-6-2T10:33:19Z</time></trkpt>
<trkpt lat="43.03400000" lon="0.28303300"><ele></ele><time>2014-6-2T10:33:22Z</time></trkpt>
<trkpt lat="43.03416700" lon="0.28346700"><ele></ele><time>2014-6-2T10:33:25Z</time></trkpt>
<trkpt lat="43.03426700" lon="0.28371700"><ele></ele><time>2014-6-2T10:33:28Z</time></trkpt>
<trkpt lat="43.03458300" lon="0.28398300"><ele></ele><time>2014-6-2T10:33:31Z</time></trkpt>
<trkpt lat="43.03473300" lon="0.28416700"><ele></ele><time>2014-6-2T10:33:34Z</time></trkpt>
<trkpt lat="43.03478300" lon="0.28470000"><ele></ele><time>2014-6-2T10:33:37Z</time></trkpt>
<trkpt lat="43.03475000" lon="0.28523300"><ele></ele><time>2014-6-2T10:33:40Z</time></trkpt>
<trkpt lat="43.03476700" lon="0.28551700"><ele></ele><time>2014-6-2T10:33:43Z</time></trkpt>
<trkpt lat="43.03478300" lon="0.28580000"><ele></ele><time>2014-6-2T10:33:46Z</time></trkpt>
<trkpt lat="43.03461700" lon="0.28603300"><ele></ele><time>2014-6-2T10:33:49Z</time></trkpt>
<trkpt lat="43.03425000" lon="0.28626700"><ele></ele><time>2014-6-2T10:33:52Z</time></trkpt>
<trkpt lat="43.03366700" lon="0.28673300"><ele></ele><time>2014-6-2T10:33:55Z</time></trkpt>
<trkpt lat="43.03345000" lon="0.28683300"><ele></ele><time>2014-6-2T10:33:58Z</time></trkpt>
<trkpt lat="43.03283300" lon="0.28728300"><ele></ele><time>2014-6-2T10:34:1Z</time></trkpt>
<trkpt lat="43.03251700" lon="0.28736700"><ele></ele><time>2014-6-2T10:34:4Z</time></trkpt>
<trkpt lat="43.03181700" lon="0.28745000"><ele></ele><time>2014-6-2T10:34:7Z</time></trkpt>
<trkpt lat="43.03123300" lon="0.28735000"><ele></ele><time>2014-6-2T10:34:10Z</time></trkpt>
<trkpt lat="43.03098300" lon="0.28745000"><ele></ele><time>2014-6-2T10:34:13Z</time></trkpt>
<trkpt lat="43.03020000" lon="0.28775000"><ele></ele><time>2014-6-2T10:34:16Z</time></trkpt>
<trkpt lat="43.02953300" lon="0.28823300"><ele></ele><time>2014-6-2T10:34:19Z</time></trkpt>
<trkpt lat="43.02928300" lon="0.28845000"><ele></ele><time>2014-6-2T10:34:22Z</time></trkpt>
<trkpt lat="43.02885000" lon="0.28856700"><ele></ele><time>2014-6-2T10:34:25Z</time></trkpt>
<trkpt lat="43.02850000" lon="0.28873300"><ele></ele><time>2014-6-2T10:34:28Z</time></trkpt>
<trkpt lat="43.02801700" lon="0.28908300"><ele></ele><time>2014-6-2T10:34:31Z</time></trkpt>
<trkpt lat="43.02751700" lon="0.28925000"><ele></ele><time>2014-6-2T10:34:34Z</time></trkpt>
<trkpt lat="43.02733300" lon="0.28923300"><ele></ele><time>2014-6-2T10:34:37Z</time></trkpt>
<trkpt lat="43.02750000" lon="0.28913300"><ele></ele><time>2014-6-2T10:34:40Z</time></trkpt>
<trkpt lat="43.02763300" lon="0.28900000"><ele></ele><time>2014-6-2T10:34:43Z</time></trkpt>
<trkpt lat="43.02731700" lon="0.28886700"><ele></ele><time>2014-6-2T10:34:46Z</time></trkpt>
<trkpt lat="43.02738300" lon="0.28863300"><ele></ele><time>2014-6-2T10:34:49Z</time></trkpt>
<trkpt lat="43.02753300" lon="0.28851700"><ele></ele><time>2014-6-2T10:34:52Z</time></trkpt>
<trkpt lat="43.02766700" lon="0.28825000"><ele></ele><time>2014-6-2T10:34:55Z</time></trkpt>
<trkpt lat="43.02781700" lon="0.28781700"><ele></ele><time>2014-6-2T10:34:58Z</time></trkpt>
<trkpt lat="43.02793300" lon="0.28741700"><ele></ele><time>2014-6-2T10:35:1Z</time></trkpt>
<trkpt lat="43.02805000" lon="0.28715000"><ele></ele><time>2014-6-2T10:35:4Z</time></trkpt>
<trkpt lat="43.02818300" lon="0.28690000"><ele></ele><time>2014-6-2T10:35:7Z</time></trkpt>
<trkpt lat="43.02826700" lon="0.28660000"><ele></ele><time>2014-6-2T10:35:10Z</time></trkpt>
<trkpt lat="43.02838300" lon="0.28616700"><ele></ele><time>2014-6-2T10:35:13Z</time></trkpt>
<trkpt lat="43.02848300" lon="0.28565000"><ele></ele><time>2014-6-2T10:35:16Z</time></trkpt>
<trkpt lat="43.02856700" lon="0.28536700"><ele></ele><time>2014-6-2T10:35:19Z</time></trkpt>
<trkpt lat="43.02873300" lon="0.28495000"><ele></ele><time>2014-6-2T10:35:22Z</time></trkpt>
<trkpt lat="43.02883300" lon="0.28453300"><ele></ele><time>2014-6-2T10:35:25Z</time></trkpt>
<trkpt lat="43.02883300" lon="0.28413300"><ele></ele><time>2014-6-2T10:35:28Z</time></trkpt>
<trkpt lat="43.02855000" lon="0.28351700"><ele></ele><time>2014-6-2T10:35:31Z</time></trkpt>
<trkpt lat="43.02840000" lon="0.28321700"><ele></ele><time>2014-6-2T10:35:34Z</time></trkpt>
<trkpt lat="43.02821700" lon="0.28275000"><ele></ele><time>2014-6-2T10:35:37Z</time></trkpt>
<trkpt lat="43.02813300" lon="0.28256700"><ele></ele><time>2014-6-2T10:35:40Z</time></trkpt>
<trkpt lat="43.02795000" lon="0.28216700"><ele></ele><time>2014-6-2T10:35:43Z</time></trkpt>
<trkpt lat="43.02781700" lon="0.28186700"><ele></ele><time>2014-6-2T10:35:46Z</time></trkpt>
<trkpt lat="43.02771700" lon="0.28158300"><ele></ele><time>2014-6-2T10:35:49Z</time></trkpt>
<trkpt lat="43.02736700" lon="0.28088300"><ele></ele><time>2014-6-2T10:35:52Z</time></trkpt>
<trkpt lat="43.02710000" lon="0.28033300"><ele></ele><time>2014-6-2T10:35:55Z</time></trkpt>
<trkpt lat="43.02723300" lon="0.28003300"><ele></ele><time>2014-6-2T10:35:58Z</time></trkpt>
<trkpt lat="43.02738300" lon="0.27951700"><ele></ele><time>2014-6-2T10:36:1Z</time></trkpt>
<trkpt lat="43.02743300" lon="0.27896700"><ele></ele><time>2014-6-2T10:36:4Z</time></trkpt>
<trkpt lat="43.02718300" lon="0.27731700"><ele></ele><time>2014-6-2T10:36:7Z</time></trkpt>
<trkpt lat="43.02711700" lon="0.27691700"><ele></ele><time>2014-6-2T10:36:10Z</time></trkpt>
<trkpt lat="43.02703300" lon="0.27663300"><ele></ele><time>2014-6-2T10:36:13Z</time></trkpt>
<trkpt lat="43.02700000" lon="0.27601700"><ele></ele><time>2014-6-2T10:36:16Z</time></trkpt>
<trkpt lat="43.02720000" lon="0.27580000"><ele></ele><time>2014-6-2T10:36:19Z</time></trkpt>
<trkpt lat="43.02735000" lon="0.27551700"><ele></ele><time>2014-6-2T10:36:22Z</time></trkpt>
<trkpt lat="43.02756700" lon="0.27545000"><ele></ele><time>2014-6-2T10:36:25Z</time></trkpt>
<trkpt lat="43.02800000" lon="0.27541700"><ele></ele><time>2014-6-2T10:36:28Z</time></trkpt>
<trkpt lat="43.02871700" lon="0.27491700"><ele></ele><time>2014-6-2T10:36:31Z</time></trkpt>
<trkpt lat="43.02886700" lon="0.27485000"><ele></ele><time>2014-6-2T10:36:34Z</time></trkpt>
<trkpt lat="43.02895000" lon="0.27448300"><ele></ele><time>2014-6-2T10:36:37Z</time></trkpt>
<trkpt lat="43.02900000" lon="0.27411700"><ele></ele><time>2014-6-2T10:36:40Z</time></trkpt>
<trkpt lat="43.02903300" lon="0.27343300"><ele></ele><time>2014-6-2T10:36:43Z</time></trkpt>
<trkpt lat="43.02903300" lon="0.27301700"><ele></ele><time>2014-6-2T10:36:46Z</time></trkpt>
<trkpt lat="43.02903300" lon="0.27265000"><ele></ele><time>2014-6-2T10:36:49Z</time></trkpt>
<trkpt lat="43.02901700" lon="0.27188300"><ele></ele><time>2014-6-2T10:36:52Z</time></trkpt>
<trkpt lat="43.02903300" lon="0.27160000"><ele></ele><time>2014-6-2T10:36:55Z</time></trkpt>
<trkpt lat="43.02900000" lon="0.27133300"><ele></ele><time>2014-6-2T10:36:58Z</time></trkpt>
<trkpt lat="43.02895000" lon="0.27111700"><ele></ele><time>2014-6-2T10:37:1Z</time></trkpt>
<trkpt lat="43.02888300" lon="0.27095000"><ele></ele><time>2014-6-2T10:37:4Z</time></trkpt>
<trkpt lat="43.02823300" lon="0.26938300"><ele></ele><time>2014-6-2T10:37:7Z</time></trkpt>
<trkpt lat="43.02815000" lon="0.26920000"><ele></ele><time>2014-6-2T10:37:10Z</time></trkpt>
<trkpt lat="43.02805000" lon="0.26871700"><ele></ele><time>2014-6-2T10:37:13Z</time></trkpt>
<trkpt lat="43.02795000" lon="0.26810000"><ele></ele><time>2014-6-2T10:37:16Z</time></trkpt>
<trkpt lat="43.02783300" lon="0.26738300"><ele></ele><time>2014-6-2T10:37:19Z</time></trkpt>
<trkpt lat="43.02648300" lon="0.26633300"><ele></ele><time>2014-6-2T10:37:22Z</time></trkpt>
<trkpt lat="43.02621700" lon="0.26578300"><ele></ele><time>2014-6-2T10:37:25Z</time></trkpt>
<trkpt lat="43.02573300" lon="0.26536700"><ele></ele><time>2014-6-2T10:37:28Z</time></trkpt>
<trkpt lat="43.02523300" lon="0.26528300"><ele></ele><time>2014-6-2T10:37:31Z</time></trkpt>
<trkpt lat="43.02426700" lon="0.26578300"><ele></ele><time>2014-6-2T10:37:34Z</time></trkpt>
<trkpt lat="43.02381700" lon="0.26618300"><ele></ele><time>2014-6-2T10:37:37Z</time></trkpt>
<trkpt lat="43.02360000" lon="0.26656700"><ele></ele><time>2014-6-2T10:37:40Z</time></trkpt>
<trkpt lat="43.02320000" lon="0.26683300"><ele></ele><time>2014-6-2T10:37:43Z</time></trkpt>
<trkpt lat="43.02300000" lon="0.26710000"><ele></ele><time>2014-6-2T10:37:46Z</time></trkpt>
<trkpt lat="43.02278300" lon="0.26721700"><ele></ele><time>2014-6-2T10:37:49Z</time></trkpt>
<trkpt lat="43.02243300" lon="0.26723300"><ele></ele><time>2014-6-2T10:37:52Z</time></trkpt>
<trkpt lat="43.02136700" lon="0.26716700"><ele></ele><time>2014-6-2T10:37:55Z</time></trkpt>
<trkpt lat="43.02103300" lon="0.26698300"><ele></ele><time>2014-6-2T10:37:58Z</time></trkpt>
<trkpt lat="43.02080000" lon="0.26675000"><ele></ele><time>2014-6-2T10:38:1Z</time></trkpt>
<trkpt lat="43.02048300" lon="0.26675000"><ele></ele><time>2014-6-2T10:38:4Z</time></trkpt>
<trkpt lat="43.02018300" lon="0.26695000"><ele></ele><time>2014-6-2T10:38:7Z</time></trkpt>
<trkpt lat="43.02003300" lon="0.26716700"><ele></ele><time>2014-6-2T10:38:10Z</time></trkpt>
<trkpt lat="43.01978300" lon="0.26785000"><ele></ele><time>2014-6-2T10:38:13Z</time></trkpt>
<trkpt lat="43.01950000" lon="0.26828300"><ele></ele><time>2014-6-2T10:38:16Z</time></trkpt>
<trkpt lat="43.01908300" lon="0.26868300"><ele></ele><time>2014-6-2T10:38:19Z</time></trkpt>
<trkpt lat="43.01886700" lon="0.26890000"><ele></ele><time>2014-6-2T10:38:22Z</time></trkpt>
<trkpt lat="43.01853300" lon="0.26916700"><ele></ele><time>2014-6-2T10:38:25Z</time></trkpt>
<trkpt lat="43.01830000" lon="0.26933300"><ele></ele><time>2014-6-2T10:38:28Z</time></trkpt>
<trkpt lat="43.01786700" lon="0.26983300"><ele></ele><time>2014-6-2T10:38:31Z</time></trkpt>
<trkpt lat="43.01765000" lon="0.27011700"><ele></ele><time>2014-6-2T10:38:34Z</time></trkpt>
<trkpt lat="43.01751700" lon="0.27023300"><ele></ele><time>2014-6-2T10:38:37Z</time></trkpt>
<trkpt lat="43.01723300" lon="0.27030000"><ele></ele><time>2014-6-2T10:38:40Z</time></trkpt>
<trkpt lat="43.01673300" lon="0.27041700"><ele></ele><time>2014-6-2T10:38:43Z</time></trkpt>
<trkpt lat="43.01630000" lon="0.27035000"><ele></ele><time>2014-6-2T10:38:46Z</time></trkpt>
<trkpt lat="43.01615000" lon="0.27048300"><ele></ele><time>2014-6-2T10:38:49Z</time></trkpt>
<trkpt lat="43.01608300" lon="0.27090000"><ele></ele><time>2014-6-2T10:38:52Z</time></trkpt>
<trkpt lat="43.01591700" lon="0.27105000"><ele></ele><time>2014-6-2T10:38:55Z</time></trkpt>
<trkpt lat="43.01555000" lon="0.27096700"><ele></ele><time>2014-6-2T10:38:58Z</time></trkpt>
<trkpt lat="43.01530000" lon="0.27093300"><ele></ele><time>2014-6-2T10:39:1Z</time></trkpt>
<trkpt lat="43.01506700" lon="0.27065000"><ele></ele><time>2014-6-2T10:39:4Z</time></trkpt>
<trkpt lat="43.01476700" lon="0.27056700"><ele></ele><time>2014-6-2T10:39:7Z</time></trkpt>
<trkpt lat="43.01446700" lon="0.27043300"><ele></ele><time>2014-6-2T10:39:10Z</time></trkpt>
<trkpt lat="43.01425000" lon="0.27033300"><ele></ele><time>2014-6-2T10:39:13Z</time></trkpt>
<trkpt lat="43.01410000" lon="0.27015000"><ele></ele><time>2014-6-2T10:39:16Z</time></trkpt>
<trkpt lat="43.01393300" lon="0.27000000"><ele></ele><time>2014-6-2T10:39:19Z</time></trkpt>
<trkpt lat="43.01371700" lon="0.26971700"><ele></ele><time>2014-6-2T10:39:22Z</time></trkpt>
<trkpt lat="43.01335000" lon="0.26963300"><ele></ele><time>2014-6-2T10:39:25Z</time></trkpt>
<trkpt lat="43.01313300" lon="0.26963300"><ele></ele><time>2014-6-2T10:39:28Z</time></trkpt>
<trkpt lat="43.01285000" lon="0.26956700"><ele></ele><time>2014-6-2T10:39:31Z</time></trkpt>
<trkpt lat="43.01265000" lon="0.26935000"><ele></ele><time>2014-6-2T10:39:34Z</time></trkpt>
<trkpt lat="43.01246700" lon="0.26913300"><ele></ele><time>2014-6-2T10:39:37Z</time></trkpt>
<trkpt lat="43.01240000" lon="0.26893300"><ele></ele><time>2014-6-2T10:39:40Z</time></trkpt>
<trkpt lat="43.01223300" lon="0.26858300"><ele></ele><time>2014-6-2T10:39:43Z</time></trkpt>
<trkpt lat="43.01200000" lon="0.26838300"><ele></ele><time>2014-6-2T10:39:46Z</time></trkpt>
<trkpt lat="43.01183300" lon="0.26811700"><ele></ele><time>2014-6-2T10:39:49Z</time></trkpt>
<trkpt lat="43.01170000" lon="0.26795000"><ele></ele><time>2014-6-2T10:39:52Z</time></trkpt>
<trkpt lat="43.01158300" lon="0.26780000"><ele></ele><time>2014-6-2T10:39:55Z</time></trkpt>
<trkpt lat="43.01140000" lon="0.26811700"><ele></ele><time>2014-6-2T10:39:58Z</time></trkpt>
<trkpt lat="43.01118300" lon="0.26831700"><ele></ele><time>2014-6-2T10:40:1Z</time></trkpt>
<trkpt lat="43.01080000" lon="0.26840000"><ele></ele><time>2014-6-2T10:40:4Z</time></trkpt>
<trkpt lat="43.01053300" lon="0.26848300"><ele></ele><time>2014-6-2T10:40:7Z</time></trkpt>
<trkpt lat="43.00990000" lon="0.26796700"><ele></ele><time>2014-6-2T10:40:10Z</time></trkpt>
<trkpt lat="43.00978300" lon="0.26775000"><ele></ele><time>2014-6-2T10:40:13Z</time></trkpt>
<trkpt lat="43.00950000" lon="0.26768300"><ele></ele><time>2014-6-2T10:40:16Z</time></trkpt>
<trkpt lat="43.00936700" lon="0.26770000"><ele></ele><time>2014-6-2T10:40:19Z</time></trkpt>
<trkpt lat="43.00951700" lon="0.26770000"><ele></ele><time>2014-6-2T10:40:22Z</time></trkpt>
<trkpt lat="43.00988300" lon="0.26761700"><ele></ele><time>2014-6-2T10:40:25Z</time></trkpt>
<trkpt lat="43.01041700" lon="0.26800000"><ele></ele><time>2014-6-2T10:40:28Z</time></trkpt>
<trkpt lat="43.01085000" lon="0.26775000"><ele></ele><time>2014-6-2T10:40:31Z</time></trkpt>
<trkpt lat="43.01103300" lon="0.26745000"><ele></ele><time>2014-6-2T10:40:34Z</time></trkpt>
<trkpt lat="43.01121700" lon="0.26726700"><ele></ele><time>2014-6-2T10:40:37Z</time></trkpt>
<trkpt lat="43.01140000" lon="0.26731700"><ele></ele><time>2014-6-2T10:40:40Z</time></trkpt>
<trkpt lat="43.01165000" lon="0.26743300"><ele></ele><time>2014-6-2T10:40:43Z</time></trkpt>
<trkpt lat="43.01203300" lon="0.26766700"><ele></ele><time>2014-6-2T10:40:46Z</time></trkpt>
<trkpt lat="43.01220000" lon="0.26776700"><ele></ele><time>2014-6-2T10:40:49Z</time></trkpt>
<trkpt lat="43.01241700" lon="0.26805000"><ele></ele><time>2014-6-2T10:40:52Z</time></trkpt>
<trkpt lat="43.01258300" lon="0.26806700"><ele></ele><time>2014-6-2T10:40:55Z</time></trkpt>
<trkpt lat="43.01296700" lon="0.26790000"><ele></ele><time>2014-6-2T10:40:58Z</time></trkpt>
<trkpt lat="43.01313300" lon="0.26776700"><ele></ele><time>2014-6-2T10:41:1Z</time></trkpt>
<trkpt lat="43.01340000" lon="0.26790000"><ele></ele><time>2014-6-2T10:41:4Z</time></trkpt>
<trkpt lat="43.01426700" lon="0.26880000"><ele></ele><time>2014-6-2T10:41:7Z</time></trkpt>
<trkpt lat="43.01453300" lon="0.26918300"><ele></ele><time>2014-6-2T10:41:10Z</time></trkpt>
<trkpt lat="43.01476700" lon="0.26941700"><ele></ele><time>2014-6-2T10:41:13Z</time></trkpt>
<trkpt lat="43.01498300" lon="0.26951700"><ele></ele><time>2014-6-2T10:41:16Z</time></trkpt>
<trkpt lat="43.01518300" lon="0.26955000"><ele></ele><time>2014-6-2T10:41:19Z</time></trkpt>
<trkpt lat="43.01665000" lon="0.26953300"><ele></ele><time>2014-6-2T10:41:22Z</time></trkpt>
<trkpt lat="43.01718300" lon="0.26843300"><ele></ele><time>2014-6-2T10:41:25Z</time></trkpt>
<trkpt lat="43.01731700" lon="0.26823300"><ele></ele><time>2014-6-2T10:41:28Z</time></trkpt>
<trkpt lat="43.01743300" lon="0.26810000"><ele></ele><time>2014-6-2T10:41:31Z</time></trkpt>
<trkpt lat="43.01771700" lon="0.26805000"><ele></ele><time>2014-6-2T10:41:34Z</time></trkpt>
<trkpt lat="43.01786700" lon="0.26786700"><ele></ele><time>2014-6-2T10:41:37Z</time></trkpt>
<trkpt lat="43.01891700" lon="0.26568300"><ele></ele><time>2014-6-2T10:41:40Z</time></trkpt>
<trkpt lat="43.01899700" lon="0.26361400"><ele></ele><time>2014-6-2T10:41:43Z</time></trkpt>
<trkpt lat="43.02201700" lon="0.26280000"><ele></ele><time>2014-6-2T10:41:46Z</time></trkpt>
<trkpt lat="43.02251700" lon="0.26295000"><ele></ele><time>2014-6-2T10:41:49Z</time></trkpt>
<trkpt lat="43.02315000" lon="0.26311700"><ele></ele><time>2014-6-2T10:41:52Z</time></trkpt>
<trkpt lat="43.02363300" lon="0.26275000"><ele></ele><time>2014-6-2T10:41:55Z</time></trkpt>
<trkpt lat="43.02385000" lon="0.26268300"><ele></ele><time>2014-6-2T10:41:58Z</time></trkpt>
<trkpt lat="43.02426700" lon="0.26283300"><ele></ele><time>2014-6-2T10:42:1Z</time></trkpt>
<trkpt lat="43.02455000" lon="0.26323300"><ele></ele><time>2014-6-2T10:42:4Z</time></trkpt>
<trkpt lat="43.02490000" lon="0.26295000"><ele></ele><time>2014-6-2T10:42:7Z</time></trkpt>
<trkpt lat="43.02496700" lon="0.26235000"><ele></ele><time>2014-6-2T10:42:10Z</time></trkpt>
<trkpt lat="43.02530000" lon="0.26208300"><ele></ele><time>2014-6-2T10:42:13Z</time></trkpt>
<trkpt lat="43.02568300" lon="0.26223300"><ele></ele><time>2014-6-2T10:42:16Z</time></trkpt>
<trkpt lat="43.02606700" lon="0.26253300"><ele></ele><time>2014-6-2T10:42:19Z</time></trkpt>
<trkpt lat="43.02630000" lon="0.26276700"><ele></ele><time>2014-6-2T10:42:22Z</time></trkpt>
<trkpt lat="43.02650000" lon="0.26293300"><ele></ele><time>2014-6-2T10:42:25Z</time></trkpt>
<trkpt lat="43.02686700" lon="0.26283300"><ele></ele><time>2014-6-2T10:42:28Z</time></trkpt>
<trkpt lat="43.02718300" lon="0.26261700"><ele></ele><time>2014-6-2T10:42:31Z</time></trkpt>
<trkpt lat="43.02743300" lon="0.26245000"><ele></ele><time>2014-6-2T10:42:34Z</time></trkpt>
<trkpt lat="43.02761700" lon="0.26235000"><ele></ele><time>2014-6-2T10:42:37Z</time></trkpt>
<trkpt lat="43.02776700" lon="0.26235000"><ele></ele><time>2014-6-2T10:42:40Z</time></trkpt>
<trkpt lat="43.02801700" lon="0.26233300"><ele></ele><time>2014-6-2T10:42:43Z</time></trkpt>
<trkpt lat="43.02833300" lon="0.26241700"><ele></ele><time>2014-6-2T10:42:46Z</time></trkpt>
<trkpt lat="43.02885000" lon="0.26285000"><ele></ele><time>2014-6-2T10:42:49Z</time></trkpt>
<trkpt lat="43.02921700" lon="0.26305000"><ele></ele><time>2014-6-2T10:42:52Z</time></trkpt>
<trkpt lat="43.02948300" lon="0.26346700"><ele></ele><time>2014-6-2T10:42:55Z</time></trkpt>
<trkpt lat="43.02971700" lon="0.26375000"><ele></ele><time>2014-6-2T10:42:58Z</time></trkpt>
<trkpt lat="43.03028300" lon="0.26411700"><ele></ele><time>2014-6-2T10:43:1Z</time></trkpt>
<trkpt lat="43.03051700" lon="0.26436700"><ele></ele><time>2014-6-2T10:43:4Z</time></trkpt>
<trkpt lat="43.03075000" lon="0.26451700"><ele></ele><time>2014-6-2T10:43:7Z</time></trkpt>
<trkpt lat="43.03106700" lon="0.26515000"><ele></ele><time>2014-6-2T10:43:10Z</time></trkpt>
<trkpt lat="43.03113300" lon="0.26546700"><ele></ele><time>2014-6-2T10:43:13Z</time></trkpt>
<trkpt lat="43.03113300" lon="0.26576700"><ele></ele><time>2014-6-2T10:43:16Z</time></trkpt>
<trkpt lat="43.03133300" lon="0.26616700"><ele></ele><time>2014-6-2T10:43:19Z</time></trkpt>
<trkpt lat="43.03145000" lon="0.26648300"><ele></ele><time>2014-6-2T10:43:22Z</time></trkpt>
<trkpt lat="43.03166700" lon="0.26681700"><ele></ele><time>2014-6-2T10:43:25Z</time></trkpt>
<trkpt lat="43.03190000" lon="0.26753300"><ele></ele><time>2014-6-2T10:43:28Z</time></trkpt>
<trkpt lat="43.03206700" lon="0.26788300"><ele></ele><time>2014-6-2T10:43:31Z</time></trkpt>
<trkpt lat="43.03221700" lon="0.26806700"><ele></ele><time>2014-6-2T10:43:34Z</time></trkpt>
<trkpt lat="43.03238300" lon="0.26845000"><ele></ele><time>2014-6-2T10:43:37Z</time></trkpt>
<trkpt lat="43.03258300" lon="0.26873300"><ele></ele><time>2014-6-2T10:43:40Z</time></trkpt>
<trkpt lat="43.03273300" lon="0.26871700"><ele></ele><time>2014-6-2T10:43:43Z</time></trkpt>
<trkpt lat="43.03300000" lon="0.26850000"><ele></ele><time>2014-6-2T10:43:46Z</time></trkpt>
<trkpt lat="43.03326700" lon="0.26816700"><ele></ele><time>2014-6-2T10:43:49Z</time></trkpt>
<trkpt lat="43.03351700" lon="0.26791700"><ele></ele><time>2014-6-2T10:43:52Z</time></trkpt>
<trkpt lat="43.03373300" lon="0.26773300"><ele></ele><time>2014-6-2T10:43:55Z</time></trkpt>
<trkpt lat="43.03390000" lon="0.26763300"><ele></ele><time>2014-6-2T10:43:58Z</time></trkpt>
<trkpt lat="43.03430000" lon="0.26746700"><ele></ele><time>2014-6-2T10:44:1Z</time></trkpt>
<trkpt lat="43.03476700" lon="0.26695000"><ele></ele><time>2014-6-2T10:44:4Z</time></trkpt>
<trkpt lat="43.03508300" lon="0.26681700"><ele></ele><time>2014-6-2T10:44:7Z</time></trkpt>
<trkpt lat="43.03576700" lon="0.26696700"><ele></ele><time>2014-6-2T10:44:10Z</time></trkpt>
<trkpt lat="43.03611700" lon="0.26688300"><ele></ele><time>2014-6-2T10:44:13Z</time></trkpt>
<trkpt lat="43.03635000" lon="0.26666700"><ele></ele><time>2014-6-2T10:44:16Z</time></trkpt>
<trkpt lat="43.03688300" lon="0.26603300"><ele></ele><time>2014-6-2T10:44:19Z</time></trkpt>
<trkpt lat="43.03711700" lon="0.26560000"><ele></ele><time>2014-6-2T10:44:22Z</time></trkpt>
<trkpt lat="43.03730000" lon="0.26518300"><ele></ele><time>2014-6-2T10:44:25Z</time></trkpt>
<trkpt lat="43.03738300" lon="0.26473300"><ele></ele><time>2014-6-2T10:44:28Z</time></trkpt>
<trkpt lat="43.03726700" lon="0.26415000"><ele></ele><time>2014-6-2T10:44:31Z</time></trkpt>
<trkpt lat="43.03741700" lon="0.26393300"><ele></ele><time>2014-6-2T10:44:34Z</time></trkpt>
<trkpt lat="43.03780000" lon="0.26366700"><ele></ele><time>2014-6-2T10:44:37Z</time></trkpt>
<trkpt lat="43.03801700" lon="0.26306700"><ele></ele><time>2014-6-2T10:44:40Z</time></trkpt>
<trkpt lat="43.03818300" lon="0.26203300"><ele></ele><time>2014-6-2T10:44:43Z</time></trkpt>
<trkpt lat="43.03806700" lon="0.26113300"><ele></ele><time>2014-6-2T10:44:46Z</time></trkpt>
<trkpt lat="43.03891700" lon="0.25946700"><ele></ele><time>2014-6-2T10:44:49Z</time></trkpt>
<trkpt lat="43.03945000" lon="0.25880000"><ele></ele><time>2014-6-2T10:44:52Z</time></trkpt>
<trkpt lat="43.03965000" lon="0.25875000"><ele></ele><time>2014-6-2T10:44:55Z</time></trkpt>
<trkpt lat="43.03911700" lon="0.25813300"><ele></ele><time>2014-6-2T10:44:58Z</time></trkpt>
<trkpt lat="43.03895000" lon="0.25803300"><ele></ele><time>2014-6-2T10:45:1Z</time></trkpt>
<trkpt lat="43.03928300" lon="0.25768300"><ele></ele><time>2014-6-2T10:45:4Z</time></trkpt>
<trkpt lat="43.03966700" lon="0.25753300"><ele></ele><time>2014-6-2T10:45:7Z</time></trkpt>
<trkpt lat="43.04031700" lon="0.25676700"><ele></ele><time>2014-6-2T10:45:10Z</time></trkpt>
<trkpt lat="43.04091700" lon="0.25625000"><ele></ele><time>2014-6-2T10:45:13Z</time></trkpt>
<trkpt lat="43.04135000" lon="0.25593300"><ele></ele><time>2014-6-2T10:45:16Z</time></trkpt>
<trkpt lat="43.04225000" lon="0.25581700"><ele></ele><time>2014-6-2T10:45:19Z</time></trkpt>
<trkpt lat="43.04388300" lon="0.25613300"><ele></ele><time>2014-6-2T10:45:22Z</time></trkpt>
</trkseg></trk></gpx>